createdAt,value
2019-06-26T00:02:22.966Z,49.80
2019-06-26T00:04:52.744Z,47.50
2019-06-26T00:07:22.500Z,53.63
2019-06-26T00:09:52.283Z,51.57
2019-06-26T00:12:22.119Z,50.57
2019-06-26T00:14:51.916Z,52.50
2019-06-26T00:17:21.620Z,52.07
2019-06-26T00:19:51.363Z,47.13
2019-06-26T00:22:21.072Z,45.47
2019-06-26T00:24:50.879Z,42.33
2019-06-26T00:27:20.959Z,41.80
2019-06-26T00:29:50.672Z,40.43
2019-06-26T00:32:20.455Z,37.93
2019-06-26T00:34:50.312Z,35.90
2019-06-26T00:37:20.076Z,36.03
2019-06-26T00:39:49.896Z,35.27
2019-06-26T00:42:19.786Z,34.87
2019-06-26T00:44:49.556Z,35.30
2019-06-26T00:47:19.438Z,35.87
2019-06-26T00:49:49.184Z,38.27
2019-06-26T00:52:19.010Z,35.23
2019-06-26T00:54:48.731Z,34.97
2019-06-26T00:57:18.578Z,33.27
2019-06-26T00:59:48.282Z,33.10
2019-06-26T01:02:17.981Z,31.67
2019-06-26T01:04:49.346Z,33.87
2019-06-26T01:07:19.070Z,31.47
2019-06-26T01:09:48.799Z,30.83
2019-06-26T01:12:18.642Z,30.47
2019-06-26T01:14:48.340Z,32.47
2019-06-26T01:17:18.137Z,31.50
2019-06-26T01:19:47.923Z,30.30
2019-06-26T01:22:17.635Z,26.20
2019-06-26T01:24:48.410Z,26.53
2019-06-26T01:27:18.120Z,25.00
2019-06-26T01:29:47.895Z,25.10
2019-06-26T01:32:17.682Z,24.17
2019-06-26T01:34:47.450Z,25.03
2019-06-26T01:37:17.228Z,20.50
2019-06-26T01:39:47.155Z,21.70
2019-06-26T01:42:16.898Z,18.27
2019-06-26T01:44:46.674Z,18.63
2019-06-26T01:47:16.394Z,19.40
2019-06-26T01:49:46.197Z,18.83
2019-06-26T01:52:15.891Z,17.97
2019-06-26T01:54:45.700Z,17.37
2019-06-26T01:57:15.430Z,17.17
2019-06-26T01:59:45.292Z,16.13
2019-06-26T02:02:15.238Z,17.97
2019-06-26T02:04:44.928Z,17.57
2019-06-26T02:07:14.751Z,16.57
2019-06-26T02:09:44.543Z,14.67
2019-06-26T02:12:14.394Z,16.60
2019-06-26T02:14:44.202Z,16.73
2019-06-26T02:17:14.047Z,16.00
2019-06-26T02:19:43.789Z,14.93
2019-06-26T02:22:13.685Z,14.43
2019-06-26T02:24:43.563Z,13.23
2019-06-26T02:27:13.347Z,13.70
2019-06-26T02:29:43.191Z,14.57
2019-06-26T02:32:13.204Z,13.73
2019-06-26T02:34:43.005Z,14.53
2019-06-26T02:37:18.109Z,14.10
2019-06-26T02:39:47.803Z,13.80
2019-06-26T02:42:17.509Z,12.53
2019-06-26T02:44:53.843Z,12.83
2019-06-26T02:47:20.786Z,14.10
2019-06-26T02:49:50.032Z,13.63
2019-06-26T02:52:19.834Z,12.50
2019-06-26T02:54:49.702Z,11.97
2019-06-26T02:57:20.397Z,12.77
2019-06-26T02:59:50.188Z,11.70
2019-06-26T03:02:19.976Z,12.27
2019-06-26T03:04:49.691Z,12.33
2019-06-26T03:07:19.524Z,11.47
2019-06-26T03:09:49.312Z,13.33
2019-06-26T03:12:19.096Z,13.57
2019-06-26T03:14:48.895Z,14.67
2019-06-26T03:17:18.586Z,15.20
2019-06-26T03:19:48.296Z,14.67
2019-06-26T03:22:18.007Z,14.60
2019-06-26T03:24:47.711Z,16.00
2019-06-26T03:27:17.462Z,15.53
2019-06-26T03:29:47.238Z,15.60
2019-06-26T03:32:17.050Z,15.40
2019-06-26T03:34:46.941Z,15.67
2019-06-26T03:37:16.855Z,13.50
2019-06-26T03:39:47.537Z,14.47
2019-06-26T03:42:17.620Z,14.53
2019-06-26T03:44:47.334Z,15.13
2019-06-26T03:47:18.601Z,15.63
2019-06-26T03:49:48.355Z,14.70
2019-06-26T03:52:18.233Z,15.97
2019-06-26T03:54:47.971Z,13.77
2019-06-26T03:57:17.702Z,12.87
2019-06-26T03:59:48.815Z,12.53
2019-06-26T04:02:18.518Z,13.10
2019-06-26T04:04:48.304Z,12.83
2019-06-26T04:07:18.985Z,12.23
2019-06-26T04:09:48.910Z,10.83
2019-06-26T04:12:18.902Z,11.80
2019-06-26T04:14:49.635Z,11.57
2019-06-26T04:17:19.346Z,12.40
2019-06-26T04:19:49.198Z,11.33
2019-06-26T04:22:18.995Z,10.30
2019-06-26T04:24:48.691Z,10.47
2019-06-26T04:27:20.840Z,10.47
2019-06-26T04:29:50.538Z,9.83
2019-06-26T04:32:20.414Z,11.97
2019-06-26T04:34:50.147Z,11.43
2019-06-26T04:37:20.238Z,11.70
2019-06-26T04:39:49.939Z,11.27
2019-06-26T04:42:19.796Z,11.57
2019-06-26T04:44:49.499Z,12.17
2019-06-26T04:47:19.271Z,11.63
2019-06-26T04:49:48.994Z,11.97
2019-06-26T04:52:18.770Z,12.07
2019-06-26T04:54:48.499Z,10.63
2019-06-26T04:57:18.581Z,12.43
2019-06-26T04:59:48.486Z,12.97
2019-06-26T05:02:19.582Z,13.10
2019-06-26T05:04:49.466Z,12.37
2019-06-26T05:07:20.475Z,12.23
2019-06-26T05:09:50.237Z,13.27
2019-06-26T05:12:20.027Z,13.00
2019-06-26T05:14:50.277Z,14.00
2019-06-26T05:17:19.982Z,12.77
2019-06-26T05:19:49.695Z,13.43
2019-06-26T05:22:19.457Z,15.00
2019-06-26T05:24:50.141Z,13.50
2019-06-26T05:27:19.983Z,14.70
2019-06-26T05:29:49.694Z,12.33
2019-06-26T05:32:19.468Z,13.20
2019-06-26T05:34:49.268Z,14.40
2019-06-26T05:37:20.442Z,14.77
2019-06-26T05:39:50.262Z,13.77
2019-06-26T05:42:21.292Z,13.97
2019-06-26T05:44:51.085Z,13.30
2019-06-26T05:47:22.139Z,13.07
2019-06-26T05:49:52.142Z,13.47
2019-06-26T05:52:21.876Z,12.47
2019-06-26T05:54:51.786Z,11.87
2019-06-26T05:57:22.441Z,14.13
2019-06-26T05:59:52.426Z,14.07
2019-06-26T06:02:22.276Z,14.63
2019-06-26T06:04:52.056Z,13.47
2019-06-26T06:07:21.922Z,11.80
2019-06-26T06:09:51.805Z,10.80
2019-06-26T06:12:23.165Z,11.27
2019-06-26T06:14:54.295Z,10.97
2019-06-26T06:17:24.393Z,10.77
2019-06-26T06:19:54.328Z,9.53
2019-06-26T06:22:27.333Z,10.40
2019-06-26T06:24:55.655Z,10.53
2019-06-26T06:27:25.498Z,10.47
2019-06-26T06:29:55.266Z,9.20
2019-06-26T06:32:25.039Z,9.13
2019-06-26T06:34:55.295Z,7.97
2019-06-26T06:37:25.522Z,9.10
2019-06-26T06:39:56.493Z,9.03
2019-06-26T06:42:26.206Z,7.97
2019-06-26T06:44:55.987Z,8.73
2019-06-26T06:47:25.772Z,8.90
2019-06-26T06:49:55.550Z,9.33
2019-06-26T06:52:25.243Z,8.33
2019-06-26T06:54:57.335Z,8.67
2019-06-26T06:57:27.894Z,8.33
2019-06-26T06:59:57.675Z,8.57
2019-06-26T07:02:27.437Z,8.07
2019-06-26T07:04:57.266Z,7.80
2019-06-26T07:07:27.046Z,7.53
2019-06-26T07:09:56.742Z,7.83
2019-06-26T07:12:27.703Z,7.30
2019-06-26T07:14:57.978Z,8.37
2019-06-26T07:17:27.666Z,9.10
2019-06-26T07:19:57.431Z,9.20
2019-06-26T07:22:27.274Z,10.03
2019-06-26T07:24:58.211Z,9.03
2019-06-26T07:27:28.932Z,8.47
2019-06-26T07:29:58.622Z,8.20
2019-06-26T07:32:28.422Z,6.90
2019-06-26T07:34:58.130Z,9.90
2019-06-26T07:37:27.853Z,10.77
2019-06-26T07:40:01.539Z,10.77
2019-06-26T07:42:29.106Z,11.33
2019-06-26T07:44:58.794Z,8.97
2019-06-26T07:47:42.526Z,9.13
2019-06-26T07:49:59.974Z,9.53
2019-06-26T07:52:29.824Z,9.97
2019-06-26T07:54:59.970Z,9.10
2019-06-26T07:57:29.663Z,8.80
2019-06-26T07:59:59.383Z,7.90
2019-06-26T08:02:29.431Z,9.07
2019-06-26T08:04:59.133Z,10.50
2019-06-26T08:07:28.891Z,9.80
2019-06-26T08:09:58.662Z,8.77
2019-06-26T08:12:28.348Z,7.77
2019-06-26T08:14:58.060Z,9.57
2019-06-26T08:17:29.363Z,11.27
2019-06-26T08:19:59.086Z,11.10
2019-06-26T08:22:28.823Z,10.83
2019-06-26T08:24:58.566Z,10.20
2019-06-26T08:27:28.411Z,11.57
2019-06-26T08:29:59.666Z,10.97
2019-06-26T08:32:29.469Z,10.47
2019-06-26T08:34:59.275Z,10.87
2019-06-26T08:37:29.061Z,10.90
2019-06-26T08:40:09.080Z,11.80
2019-06-26T08:42:41.937Z,10.63
2019-06-26T08:45:12.670Z,10.63
2019-06-26T08:47:42.411Z,11.57
2019-06-26T08:50:14.679Z,11.17
2019-06-26T08:52:44.500Z,10.93
2019-06-26T08:55:14.676Z,12.47
2019-06-26T08:57:44.526Z,11.40
2019-06-26T09:00:16.642Z,11.67
2019-06-26T09:02:48.911Z,10.40
2019-06-26T09:05:19.573Z,12.33
2019-06-26T09:07:50.967Z,10.77
2019-06-26T09:10:20.906Z,11.77
2019-06-26T09:12:50.634Z,11.03
2019-06-26T09:15:20.447Z,10.53
2019-06-26T09:17:50.270Z,9.60
2019-06-26T09:20:27.613Z,9.17
2019-06-26T09:22:57.376Z,8.03
2019-06-26T09:25:27.107Z,8.57
2019-06-26T09:27:56.980Z,7.90
2019-06-26T09:30:26.842Z,7.37
2019-06-26T09:32:56.631Z,7.20
2019-06-26T09:35:26.439Z,7.20
2019-06-26T09:38:00.152Z,7.10
2019-06-26T09:40:32.046Z,7.13
2019-06-26T09:43:02.472Z,6.30
2019-06-26T09:45:32.366Z,5.60
2019-06-26T09:48:02.206Z,5.87
2019-06-26T09:50:31.958Z,5.60
2019-06-26T09:53:05.225Z,5.57
2019-06-26T09:55:33.298Z,5.08
2019-06-26T09:58:03.071Z,4.33
2019-06-26T10:00:33.927Z,5.27
2019-06-26T10:03:03.625Z,4.90
2019-06-26T10:05:33.413Z,4.35
2019-06-26T10:08:03.410Z,4.60
2019-06-26T10:10:33.309Z,5.50
2019-06-26T10:13:03.012Z,5.28
2019-06-26T10:15:32.843Z,4.75
2019-06-26T10:18:02.645Z,5.05
2019-06-26T10:20:33.290Z,4.35
2019-06-26T10:23:02.971Z,4.62
2019-06-26T10:25:32.844Z,3.55
2019-06-26T10:28:02.774Z,3.70
2019-06-26T10:30:32.577Z,4.03
2019-06-26T10:33:02.375Z,3.55
2019-06-26T10:35:32.174Z,3.30
2019-06-26T10:38:01.878Z,4.05
2019-06-26T10:40:32.971Z,3.52
2019-06-26T10:43:02.682Z,4.30
2019-06-26T10:45:35.951Z,2.62
2019-06-26T10:48:03.894Z,4.20
2019-06-26T10:50:33.610Z,3.62
2019-06-26T10:53:03.396Z,3.72
2019-06-26T10:55:33.111Z,4.03
2019-06-26T10:58:03.180Z,3.37
2019-06-26T11:00:33.154Z,2.87
2019-06-26T11:03:02.951Z,3.65
2019-06-26T11:05:32.706Z,2.87
2019-06-26T11:08:02.483Z,2.90
2019-06-26T11:10:33.627Z,2.90
2019-06-26T11:13:03.423Z,2.42
2019-06-26T11:15:33.403Z,2.77
2019-06-26T11:18:03.161Z,2.62
2019-06-26T11:20:33.211Z,3.22
2019-06-26T11:23:02.919Z,3.70
2019-06-26T11:25:33.372Z,2.92
2019-06-26T11:28:05.227Z,3.37
2019-06-26T11:30:35.076Z,2.72
2019-06-26T11:33:04.935Z,2.62
2019-06-26T11:35:34.863Z,2.87
2019-06-26T11:38:04.701Z,3.15
2019-06-26T11:40:34.398Z,3.05
2019-06-26T11:43:04.242Z,3.87
2019-06-26T11:45:34.109Z,3.17
2019-06-26T11:48:05.226Z,3.50
2019-06-26T11:50:34.989Z,2.90
2019-06-26T11:53:04.834Z,3.92
2019-06-26T11:55:34.570Z,3.08
2019-06-26T11:58:04.453Z,3.70
2019-06-26T12:00:34.294Z,2.47
2019-06-26T12:03:04.039Z,3.55
2019-06-26T12:05:33.757Z,2.37
2019-06-26T12:08:03.594Z,2.17
2019-06-26T12:10:33.427Z,3.92
2019-06-26T12:13:04.358Z,3.17
2019-06-26T12:15:34.139Z,2.37
2019-06-26T12:18:03.942Z,2.42
2019-06-26T12:20:33.656Z,2.70
2019-06-26T12:23:03.362Z,2.50
2019-06-26T12:25:33.530Z,3.05
2019-06-26T12:28:04.119Z,2.92
2019-06-26T12:30:33.952Z,2.58
2019-06-26T12:33:04.218Z,2.70
2019-06-26T12:35:35.182Z,3.27
2019-06-26T12:38:05.099Z,2.47
2019-06-26T12:40:34.830Z,2.45
2019-06-26T12:43:04.629Z,2.60
2019-06-26T12:45:34.414Z,2.45
2019-06-26T12:48:04.197Z,2.98
2019-06-26T12:50:36.141Z,3.42
2019-06-26T12:53:05.871Z,2.85
2019-06-26T12:55:37.399Z,3.05
2019-06-26T12:58:14.807Z,2.85
2019-06-26T13:00:38.860Z,2.00
2019-06-26T13:03:08.724Z,3.15
2019-06-26T13:05:40.941Z,2.33
2019-06-26T13:08:10.701Z,2.42
2019-06-26T13:10:49.856Z,3.08
2019-06-26T13:13:12.053Z,3.02
2019-06-26T13:15:41.762Z,2.50
2019-06-26T13:18:11.590Z,2.42
2019-06-26T13:20:52.378Z,2.50
2019-06-26T13:23:14.895Z,2.35
2019-06-26T13:25:44.629Z,1.55
2019-06-26T13:28:14.535Z,1.90
2019-06-26T13:30:44.606Z,2.42
2019-06-26T13:33:14.504Z,1.80
2019-06-26T13:35:44.237Z,2.72
2019-06-26T13:38:13.925Z,2.30
2019-06-26T13:40:43.622Z,2.00
2019-06-26T13:43:13.584Z,2.22
2019-06-26T13:45:43.302Z,2.35
2019-06-26T13:48:13.084Z,3.02
2019-06-26T13:50:42.881Z,1.90
2019-06-26T13:53:14.675Z,1.80
2019-06-26T13:55:44.396Z,2.62
2019-06-26T13:58:14.210Z,2.10
2019-06-26T14:00:43.931Z,1.70
2019-06-26T14:03:13.688Z,2.37
2019-06-26T14:05:43.488Z,2.08
2019-06-26T14:08:13.247Z,1.62
2019-06-26T14:10:44.174Z,1.25
2019-06-26T14:13:14.145Z,1.65
2019-06-26T14:15:44.031Z,1.60
2019-06-26T14:18:13.842Z,1.98
2019-06-26T14:20:43.800Z,2.05
2019-06-26T14:23:13.502Z,2.98
2019-06-26T14:25:44.195Z,1.60
2019-06-26T14:28:13.965Z,2.40
2019-06-26T14:30:43.862Z,1.35
2019-06-26T14:33:13.551Z,2.30
2019-06-26T14:35:43.258Z,2.33
2019-06-26T14:38:12.982Z,1.87
2019-06-26T14:40:44.102Z,2.22
2019-06-26T14:43:13.858Z,1.75
2019-06-26T14:45:44.574Z,1.50
2019-06-26T14:48:14.420Z,2.58
2019-06-26T14:50:45.529Z,2.10
2019-06-26T14:53:15.347Z,1.67
2019-06-26T14:55:45.063Z,1.90
2019-06-26T14:58:14.752Z,1.35
2019-06-26T15:00:44.455Z,2.65
2019-06-26T15:03:14.219Z,1.77
2019-06-26T15:05:43.986Z,1.98
2019-06-26T15:08:13.702Z,2.00
2019-06-26T15:10:43.458Z,2.42
2019-06-26T15:13:13.318Z,2.08
2019-06-26T15:15:43.020Z,2.50
2019-06-26T15:18:12.855Z,2.90
2019-06-26T15:20:42.594Z,1.67
2019-06-26T15:23:12.286Z,1.75
2019-06-26T15:25:42.063Z,2.47
2019-06-26T15:28:11.822Z,1.87
2019-06-26T15:30:41.542Z,1.47
2019-06-26T15:33:11.308Z,1.07
2019-06-26T15:35:41.031Z,1.87
2019-06-26T15:38:10.895Z,1.50
2019-06-26T15:40:40.756Z,3.02
2019-06-26T15:43:10.504Z,2.22
2019-06-26T15:45:40.896Z,2.55
2019-06-26T15:48:10.656Z,2.75
2019-06-26T15:50:40.427Z,10.60
2019-06-26T15:53:10.270Z,12.82
2019-06-26T15:55:39.979Z,10.43
2019-06-26T15:58:09.667Z,5.92
2019-06-26T16:00:39.375Z,1.85
2019-06-26T16:03:09.130Z,2.05
2019-06-26T16:05:38.826Z,2.45
2019-06-26T16:08:08.684Z,2.08
2019-06-26T16:10:38.379Z,1.82
2019-06-26T16:13:10.528Z,1.47
2019-06-26T16:15:40.325Z,1.67
2019-06-26T16:18:38.047Z,1.70
2019-06-26T16:21:08.005Z,1.57
2019-06-26T16:23:37.912Z,2.42
2019-06-26T16:26:07.672Z,2.40
2019-06-26T16:28:37.482Z,2.08
2019-06-26T16:31:07.290Z,2.08
2019-06-26T16:33:37.018Z,1.77
2019-06-26T16:36:08.108Z,2.60
2019-06-26T16:38:39.197Z,1.92
2019-06-26T16:41:09.055Z,1.82
2019-06-26T16:43:40.169Z,2.55
2019-06-26T16:46:09.913Z,1.90
2019-06-26T16:48:39.666Z,2.08
2019-06-26T16:51:09.367Z,2.10
2019-06-26T16:53:39.051Z,2.52
2019-06-26T16:56:08.790Z,2.62
2019-06-26T16:58:38.516Z,3.58
2019-06-26T17:01:08.395Z,1.80
2019-06-26T17:03:38.123Z,2.08
2019-06-26T17:06:07.964Z,2.25
2019-06-26T17:08:37.750Z,2.17
2019-06-26T17:11:07.464Z,3.25
2019-06-26T17:13:37.226Z,1.80
2019-06-26T17:16:06.946Z,2.42
2019-06-26T17:18:36.660Z,1.87
2019-06-26T17:21:06.495Z,1.90
2019-06-26T17:23:36.289Z,2.27
2019-06-26T17:26:06.051Z,1.25
2019-06-26T17:28:35.899Z,1.97
2019-06-26T17:31:05.668Z,1.52
2019-06-26T17:33:35.395Z,1.32
2019-06-26T17:36:05.188Z,1.92
2019-06-26T17:38:35.135Z,1.95
2019-06-26T17:41:04.919Z,1.40
2019-06-26T17:43:34.716Z,1.82
2019-06-26T17:46:04.600Z,1.45
2019-06-26T17:48:34.674Z,1.15
2019-06-26T17:51:04.543Z,1.42
2019-06-26T17:53:34.277Z,1.32
2019-06-26T17:56:04.082Z,1.45
2019-06-26T17:58:34.008Z,3.95
2019-06-26T18:01:03.846Z,1.65
2019-06-26T18:03:33.651Z,1.80
2019-06-26T18:06:03.878Z,1.40
2019-06-26T18:08:33.593Z,1.32
2019-06-26T18:11:03.488Z,2.57
2019-06-26T18:13:33.256Z,1.90
2019-06-26T18:16:03.109Z,1.62
2019-06-26T18:18:32.904Z,1.60
2019-06-26T18:21:02.644Z,1.70
2019-06-26T18:23:38.233Z,1.67
2019-06-26T18:26:13.053Z,1.53
2019-06-26T18:28:38.020Z,1.87
2019-06-26T18:31:07.847Z,1.60
2019-06-26T18:33:37.609Z,2.37
2019-06-26T18:36:07.533Z,2.27
2019-06-26T18:38:37.322Z,1.53
2019-06-26T18:41:07.226Z,1.93
2019-06-26T18:43:37.056Z,1.83
2019-06-26T18:46:06.845Z,2.63
2019-06-26T18:48:36.626Z,2.27
2019-06-26T18:51:06.522Z,1.80
2019-06-26T18:53:36.386Z,1.80
2019-06-26T18:56:06.230Z,1.77
2019-06-26T18:58:36.039Z,1.83
2019-06-26T19:01:06.516Z,1.57
2019-06-26T19:03:36.287Z,1.93
2019-06-26T19:06:06.165Z,1.63
2019-06-26T19:08:36.193Z,1.70
2019-06-26T19:11:05.974Z,1.60
2019-06-26T19:13:35.647Z,1.70
2019-06-26T19:16:05.449Z,2.30
2019-06-26T19:18:35.159Z,2.13
2019-06-26T19:21:05.099Z,1.67
2019-06-26T19:23:41.155Z,1.73
2019-06-26T19:26:10.952Z,1.80
2019-06-26T19:28:40.688Z,1.63
2019-06-26T19:31:10.447Z,1.60
2019-06-26T19:33:45.551Z,1.70
2019-06-26T19:36:13.807Z,1.53
2019-06-26T19:38:43.514Z,1.43
2019-06-26T19:41:13.263Z,1.60
2019-06-26T19:43:43.031Z,2.87
2019-06-26T19:46:12.763Z,1.60
2019-06-26T19:48:42.664Z,2.50
2019-06-26T19:51:12.454Z,2.13
2019-06-26T19:53:42.242Z,1.90
2019-06-26T19:56:12.062Z,2.30
2019-06-26T19:58:42.129Z,1.70
2019-06-26T20:01:11.890Z,2.17
2019-06-26T20:03:42.287Z,1.47
2019-06-26T20:06:12.044Z,1.47
2019-06-26T20:08:54.458Z,2.00
2019-06-26T20:11:14.979Z,1.90
2019-06-26T20:13:45.771Z,2.10
2019-06-26T20:16:15.530Z,1.63
2019-06-26T20:18:45.420Z,1.90
2019-06-26T20:21:15.130Z,1.97
2019-06-26T20:23:45.271Z,2.20
2019-06-26T20:26:16.787Z,2.10
2019-06-26T20:28:47.702Z,1.73
2019-06-26T20:31:17.459Z,1.40
2019-06-26T20:33:47.203Z,2.53
2019-06-26T20:36:16.918Z,2.87
2019-06-26T20:38:46.725Z,1.80
2019-06-26T20:41:16.506Z,2.07
2019-06-26T20:43:46.258Z,2.83
2019-06-26T20:46:16.119Z,2.23
2019-06-26T20:48:45.853Z,1.87
2019-06-26T20:51:15.565Z,1.87
2019-06-26T20:53:45.346Z,2.37
2019-06-26T20:56:15.174Z,1.77
2019-06-26T20:58:44.967Z,2.23
2019-06-26T21:01:14.781Z,2.43
2019-06-26T21:03:44.578Z,1.67
2019-06-26T21:06:14.355Z,2.00
2019-06-26T21:08:46.955Z,1.97
2019-06-26T21:11:19.743Z,1.53
2019-06-26T21:13:49.446Z,1.90
2019-06-26T21:16:19.138Z,2.20
2019-06-26T21:18:48.833Z,2.73
2019-06-26T21:21:18.650Z,1.90
2019-06-26T21:23:48.350Z,1.60
2019-06-26T21:26:18.171Z,2.00
2019-06-26T21:28:48.068Z,1.50
2019-06-26T21:31:17.735Z,2.00
2019-06-26T21:33:47.426Z,1.87
2019-06-26T21:36:17.151Z,2.30
2019-06-26T21:38:47.150Z,1.60
2019-06-26T21:41:16.850Z,2.10
2019-06-26T21:43:46.559Z,2.20
2019-06-26T21:46:16.434Z,2.43
2019-06-26T21:48:46.152Z,3.17
2019-06-26T21:51:15.957Z,1.70
2019-06-26T21:53:45.755Z,2.20
2019-06-26T21:56:33.542Z,2.20
2019-06-26T21:59:21.202Z,2.03
2019-06-26T22:02:09.148Z,2.00
2019-06-26T22:04:50.387Z,2.40
2019-06-26T22:07:30.399Z,2.73
2019-06-26T22:10:04.202Z,1.80
2019-06-26T22:12:35.757Z,2.73
2019-06-26T22:15:08.097Z,1.87
2019-06-26T22:17:39.057Z,2.27
2019-06-26T22:20:12.562Z,2.13
2019-06-26T22:22:40.978Z,2.53
2019-06-26T22:25:10.934Z,2.30
2019-06-26T22:27:40.675Z,2.10
2019-06-26T22:30:10.851Z,2.70
2019-06-26T22:32:40.690Z,2.10
2019-06-26T22:35:22.406Z,2.07
2019-06-26T22:37:52.325Z,2.07
2019-06-26T22:40:22.471Z,2.70
2019-06-26T22:42:52.251Z,3.07
2019-06-26T22:45:22.139Z,2.20
2019-06-26T22:47:51.852Z,1.97
2019-06-26T22:50:21.732Z,2.50
2019-06-26T22:52:51.437Z,2.10
2019-06-26T22:55:21.388Z,2.40
2019-06-26T22:57:51.146Z,2.30
2019-06-26T23:00:21.491Z,2.53
2019-06-26T23:02:51.331Z,2.67
2019-06-26T23:05:21.179Z,2.90
2019-06-26T23:07:51.050Z,3.40
2019-06-26T23:10:21.066Z,2.87
2019-06-26T23:12:50.747Z,2.10
2019-06-26T23:15:21.170Z,2.50
2019-06-26T23:17:50.959Z,2.20
2019-06-26T23:20:20.897Z,2.67
2019-06-26T23:22:50.799Z,1.93
2019-06-26T23:25:20.663Z,2.20
2019-06-26T23:27:50.438Z,3.07
2019-06-26T23:30:20.606Z,2.67
2019-06-26T23:32:50.465Z,2.80
2019-06-26T23:35:20.190Z,3.47
2019-06-26T23:37:50.080Z,2.73
2019-06-26T23:40:19.859Z,3.23
2019-06-26T23:42:49.554Z,2.40
2019-06-26T23:45:19.410Z,1.97
2019-06-26T23:47:49.108Z,2.87
2019-06-26T23:50:18.919Z,2.07
2019-06-26T23:52:48.612Z,2.77
2019-06-26T23:55:18.375Z,2.77
2019-06-26T23:57:58.540Z,2.37
